createdAt,value
2023-01-26T00:01:18.053Z,41.10
2023-01-26T00:03:46.274Z,40.35
2023-01-26T00:06:15.191Z,39.40
2023-01-26T00:08:44.214Z,44.25
2023-01-26T00:11:13.626Z,40.45
2023-01-26T00:13:41.326Z,47.65
2023-01-26T00:16:13.550Z,41.38
2023-01-26T00:18:41.451Z,41.10
2023-01-26T00:21:12.467Z,39.03
2023-01-26T00:23:39.498Z,40.85
2023-01-26T00:26:07.939Z,43.80
2023-01-26T00:28:35.039Z,41.25
2023-01-26T00:31:03.673Z,39.40
2023-01-26T00:33:31.168Z,40.50
2023-01-26T00:35:58.167Z,43.28
2023-01-26T00:38:26.954Z,41.50
2023-01-26T00:40:54.096Z,42.22
2023-01-26T00:43:21.138Z,39.80
2023-01-26T00:45:48.210Z,44.17
2023-01-26T00:48:15.311Z,40.45
2023-01-26T00:50:43.524Z,44.95
2023-01-26T00:53:11.097Z,39.70
2023-01-26T00:55:38.460Z,40.58
2023-01-26T00:58:07.730Z,45.00
2023-01-26T01:00:37.057Z,36.55
2023-01-26T01:03:05.964Z,36.53
2023-01-26T01:05:34.166Z,44.03
2023-01-26T01:08:01.714Z,38.67
2023-01-26T01:10:28.905Z,38.42
2023-01-26T01:12:56.767Z,39.95
2023-01-26T01:15:24.881Z,35.63
2023-01-26T01:17:52.515Z,39.22
2023-01-26T01:20:19.828Z,38.42
2023-01-26T01:22:47.022Z,40.88
2023-01-26T01:25:14.204Z,42.40
2023-01-26T01:27:41.320Z,38.03
2023-01-26T01:30:09.448Z,47.15
2023-01-26T01:32:36.766Z,41.65
2023-01-26T01:35:04.338Z,39.58
2023-01-26T01:37:31.674Z,39.75
2023-01-26T01:39:58.859Z,43.47
2023-01-26T01:42:26.349Z,42.75
2023-01-26T01:45:27.106Z,41.38
2023-01-26T01:47:57.451Z,38.72
2023-01-26T01:50:26.013Z,34.05
2023-01-26T01:52:54.584Z,47.03
2023-01-26T01:55:21.673Z,40.60
2023-01-26T01:57:55.961Z,40.42
2023-01-26T02:00:24.703Z,43.70
2023-01-26T02:03:19.625Z,39.28
2023-01-26T02:06:08.904Z,39.75
2023-01-26T02:08:43.120Z,42.08
2023-01-26T02:13:46.128Z,36.17
2023-01-26T02:16:13.360Z,41.20
2023-01-26T02:18:41.702Z,37.30
2023-01-26T02:21:11.706Z,35.22
2023-01-26T02:23:41.956Z,42.75
2023-01-26T02:26:29.433Z,35.17
2023-01-26T02:31:25.036Z,42.05
2023-01-26T02:33:53.250Z,33.17
2023-01-26T02:36:24.229Z,42.17
2023-01-26T02:39:14.238Z,32.47
2023-01-26T02:42:00.712Z,35.95
2023-01-26T02:44:29.400Z,32.85
2023-01-26T02:46:56.485Z,35.47
2023-01-26T02:49:41.966Z,36.72
2023-01-26T02:52:09.335Z,31.33
2023-01-26T02:54:54.666Z,36.33
2023-01-26T02:59:51.447Z,39.95
2023-01-26T03:02:18.985Z,34.67
2023-01-26T03:04:45.997Z,35.25
2023-01-26T03:07:14.284Z,36.90
2023-01-26T03:09:41.183Z,37.55
2023-01-26T03:12:09.265Z,33.42
2023-01-26T03:14:36.243Z,37.17
2023-01-26T03:17:03.192Z,33.60
2023-01-26T03:19:49.788Z,37.40
2023-01-26T03:22:35.335Z,36.83
2023-01-26T03:25:20.798Z,39.37
2023-01-26T03:27:49.750Z,32.67
2023-01-26T03:30:19.128Z,31.75
2023-01-26T03:32:48.008Z,35.40
2023-01-26T03:35:22.581Z,39.42
2023-01-26T03:37:54.593Z,34.58
2023-01-26T03:40:55.856Z,33.33
2023-01-26T03:43:41.304Z,34.23
2023-01-26T03:46:27.729Z,32.88
2023-01-26T03:49:13.221Z,32.72
2023-01-26T03:51:58.639Z,40.40
2023-01-26T03:54:44.153Z,38.95
2023-01-26T03:57:11.541Z,35.92
2023-01-26T03:59:38.789Z,35.50
2023-01-26T04:02:30.466Z,32.47
2023-01-26T04:05:17.212Z,34.65
2023-01-26T04:08:06.087Z,34.60
2023-01-26T04:10:33.065Z,34.58
2023-01-26T04:13:21.646Z,35.60
2023-01-26T04:16:12.178Z,38.55
2023-01-26T04:21:35.732Z,38.10
2023-01-26T04:24:16.788Z,31.98
2023-01-26T04:26:44.616Z,38.83
2023-01-26T04:29:17.051Z,35.13
2023-01-26T04:31:45.860Z,32.63
2023-01-26T04:34:16.170Z,38.97
2023-01-26T04:36:44.022Z,33.83
2023-01-26T04:39:11.225Z,36.72
2023-01-26T04:41:42.536Z,34.90
2023-01-26T04:44:12.197Z,37.47
2023-01-26T04:46:39.574Z,39.58
2023-01-26T04:49:07.030Z,38.80
2023-01-26T04:51:35.137Z,34.90
2023-01-26T04:54:02.084Z,37.83
2023-01-26T04:56:32.058Z,43.35
2023-01-26T04:59:03.039Z,40.92
2023-01-26T05:01:32.110Z,42.42
2023-01-26T05:04:00.898Z,40.47
2023-01-26T05:06:29.952Z,49.65
2023-01-26T05:08:57.489Z,43.67
2023-01-26T05:11:25.954Z,41.38
2023-01-26T05:14:02.818Z,42.92
2023-01-26T05:16:43.717Z,43.15
2023-01-26T05:19:39.061Z,45.05
2023-01-26T05:22:24.707Z,51.17
2023-01-26T05:25:26.423Z,61.00
2023-01-26T05:28:00.376Z,57.45
2023-01-26T05:30:27.935Z,60.08
2023-01-26T05:33:02.081Z,61.42
2023-01-26T05:35:29.508Z,58.53
2023-01-26T05:37:56.654Z,59.72
2023-01-26T05:40:26.113Z,62.70
2023-01-26T05:42:54.685Z,59.90
2023-01-26T05:45:28.510Z,60.38
2023-01-26T05:47:59.559Z,57.75
2023-01-26T05:50:27.010Z,47.97
2023-01-26T05:53:12.511Z,49.17
2023-01-26T05:55:40.648Z,48.00
2023-01-26T05:58:07.791Z,46.55
2023-01-26T06:00:34.808Z,39.58
2023-01-26T06:03:08.256Z,41.33
2023-01-26T06:05:35.307Z,43.00
2023-01-26T06:08:08.803Z,41.53
2023-01-26T06:10:49.873Z,43.92
2023-01-26T06:13:37.136Z,39.83
2023-01-26T06:16:19.746Z,40.45
2023-01-26T06:18:49.769Z,37.25
2023-01-26T06:21:17.877Z,34.40
2023-01-26T06:23:45.260Z,41.10
2023-01-26T06:26:13.155Z,39.17
2023-01-26T06:28:40.316Z,33.42
2023-01-26T06:31:08.447Z,40.17
2023-01-26T06:33:37.342Z,40.10
2023-01-26T06:36:15.099Z,35.50
2023-01-26T06:38:48.912Z,39.15
2023-01-26T06:41:17.018Z,35.88
2023-01-26T06:43:46.652Z,32.08
2023-01-26T06:46:15.220Z,35.72
2023-01-26T06:48:43.367Z,34.55
2023-01-26T06:51:16.509Z,34.10
2023-01-26T06:53:57.628Z,35.15
2023-01-26T06:56:42.381Z,32.40
2023-01-26T06:59:28.859Z,34.03
2023-01-26T07:02:34.542Z,42.78
2023-01-26T07:05:01.558Z,30.45
2023-01-26T07:07:29.265Z,40.97
2023-01-26T07:09:56.195Z,29.65
2023-01-26T07:12:23.285Z,30.13
2023-01-26T07:14:52.086Z,31.17
2023-01-26T07:17:18.994Z,33.67
2023-01-26T07:19:46.018Z,26.60
2023-01-26T07:22:15.118Z,28.67
2023-01-26T07:24:42.118Z,29.33
2023-01-26T07:27:09.168Z,29.95
2023-01-26T07:29:36.042Z,23.33
2023-01-26T07:32:03.102Z,25.05
2023-01-26T07:34:30.087Z,39.97
2023-01-26T07:36:57.162Z,38.15
2023-01-26T07:39:24.087Z,40.35
2023-01-26T07:41:51.135Z,28.90
2023-01-26T07:44:33.474Z,25.15
2023-01-26T07:47:00.520Z,27.88
2023-01-26T07:49:27.630Z,22.88
2023-01-26T07:51:54.600Z,52.13
2023-01-26T07:54:21.701Z,51.47
2023-01-26T07:56:54.863Z,46.03
2023-01-26T07:59:22.467Z,42.20
2023-01-26T08:01:50.592Z,33.97
2023-01-26T08:04:17.806Z,32.22
2023-01-26T08:06:44.834Z,40.00
2023-01-26T08:09:11.918Z,34.97
2023-01-26T08:11:38.851Z,31.85
2023-01-26T08:14:05.746Z,43.88
2023-01-26T08:16:32.869Z,25.67
2023-01-26T08:19:00.052Z,26.35
2023-01-26T08:21:27.123Z,32.03
2023-01-26T08:23:54.210Z,26.05
2023-01-26T08:26:21.624Z,23.52
2023-01-26T08:28:49.077Z,25.77
2023-01-26T08:31:19.890Z,25.98
2023-01-26T08:33:50.651Z,18.90
2023-01-26T08:36:21.962Z,22.02
2023-01-26T08:38:50.161Z,20.38
2023-01-26T08:41:17.505Z,27.25
2023-01-26T08:43:44.574Z,26.10
2023-01-26T08:46:11.724Z,57.97
2023-01-26T08:48:38.841Z,126.55
2023-01-26T08:51:07.185Z,67.15
2023-01-26T08:53:35.587Z,50.45
2023-01-26T08:56:07.451Z,33.20
2023-01-26T08:58:35.205Z,28.02
2023-01-26T09:01:06.880Z,17.50
2023-01-26T09:03:34.012Z,26.75
2023-01-26T09:06:04.318Z,42.20
2023-01-26T09:08:31.572Z,46.00
2023-01-26T09:10:58.660Z,17.45
2023-01-26T09:13:25.650Z,21.50
2023-01-26T09:15:53.113Z,19.08
2023-01-26T09:18:20.576Z,16.88
2023-01-26T09:20:47.574Z,20.98
2023-01-26T09:23:16.871Z,25.45
2023-01-26T09:25:45.066Z,25.00
2023-01-26T09:28:12.057Z,18.55
2023-01-26T09:30:39.098Z,21.88
2023-01-26T09:33:06.919Z,18.13
2023-01-26T09:35:33.990Z,17.33
2023-01-26T09:38:00.930Z,19.45
2023-01-26T09:40:27.826Z,13.07
2023-01-26T09:43:08.927Z,18.73
2023-01-26T09:45:55.692Z,18.90
2023-01-26T09:48:41.000Z,16.77
2023-01-26T09:51:26.531Z,18.00
2023-01-26T09:53:58.038Z,17.20
2023-01-26T09:56:30.597Z,14.05
2023-01-26T09:59:07.007Z,23.08
2023-01-26T10:01:51.277Z,17.63
2023-01-26T10:04:44.095Z,15.23
2023-01-26T10:07:13.940Z,16.77
2023-01-26T10:09:51.908Z,20.52
2023-01-26T10:12:21.652Z,16.20
2023-01-26T10:15:05.969Z,18.00
2023-01-26T10:17:36.839Z,14.35
2023-01-26T10:20:22.766Z,16.48
2023-01-26T10:22:54.023Z,14.73
2023-01-26T10:25:35.083Z,59.92
2023-01-26T10:28:21.901Z,26.30
2023-01-26T10:30:51.318Z,20.63
2023-01-26T10:33:27.263Z,15.15
2023-01-26T10:35:54.571Z,18.92
2023-01-26T10:38:33.753Z,12.52
2023-01-26T10:41:19.467Z,13.95
2023-01-26T10:43:58.221Z,20.80
2023-01-26T10:46:45.497Z,17.67
2023-01-26T10:49:12.502Z,15.90
2023-01-26T10:51:42.556Z,13.70
2023-01-26T10:54:24.853Z,18.40
2023-01-26T10:56:59.315Z,14.38
2023-01-26T10:59:39.247Z,14.35
2023-01-26T11:02:11.984Z,16.67
2023-01-26T11:04:39.803Z,18.67
2023-01-26T11:07:44.148Z,15.90
2023-01-26T11:10:17.227Z,15.45
2023-01-26T11:12:44.440Z,16.88
2023-01-26T11:15:21.285Z,18.08
2023-01-26T11:18:23.565Z,15.93
2023-01-26T11:21:01.251Z,13.52
2023-01-26T11:23:33.991Z,18.67
2023-01-26T11:26:11.448Z,15.80
2023-01-26T11:29:07.664Z,17.02
2023-01-26T11:31:43.609Z,15.77
2023-01-26T11:34:10.486Z,14.63
2023-01-26T11:36:52.865Z,19.45
2023-01-26T11:39:53.690Z,20.23
2023-01-26T11:42:45.951Z,14.98
2023-01-26T11:45:50.465Z,15.77
2023-01-26T11:48:45.304Z,14.60
2023-01-26T11:51:24.576Z,17.15
2023-01-26T11:54:12.873Z,17.08
2023-01-26T11:57:04.525Z,18.35
2023-01-26T11:59:38.690Z,16.65
2023-01-26T12:02:14.551Z,16.63
2023-01-26T12:04:46.890Z,17.85
2023-01-26T12:08:03.783Z,18.10
2023-01-26T12:10:34.851Z,21.77
2023-01-26T12:13:17.161Z,14.63
2023-01-26T12:15:50.526Z,16.42
2023-01-26T12:18:42.238Z,17.70
2023-01-26T12:21:14.403Z,16.98
2023-01-26T12:23:59.268Z,18.08
2023-01-26T12:26:32.063Z,67.32
2023-01-26T12:29:09.909Z,50.03
2023-01-26T12:32:00.333Z,23.40
2023-01-26T12:34:31.229Z,23.10
2023-01-26T12:37:20.920Z,17.67
2023-01-26T12:40:09.985Z,19.48
2023-01-26T12:42:47.713Z,15.80
2023-01-26T12:45:38.076Z,22.20
2023-01-26T12:48:15.483Z,18.15
2023-01-26T12:50:59.464Z,16.60
2023-01-26T12:53:37.876Z,20.23
2023-01-26T12:56:20.077Z,16.50
2023-01-26T12:58:50.096Z,15.82
2023-01-26T13:01:20.684Z,17.75
2023-01-26T13:04:08.788Z,19.08
2023-01-26T13:06:35.793Z,20.45
2023-01-26T13:09:26.709Z,18.67
2023-01-26T13:11:53.744Z,18.10
2023-01-26T13:14:43.188Z,18.90
2023-01-26T13:17:49.103Z,19.33
2023-01-26T13:20:23.983Z,16.92
2023-01-26T13:22:51.915Z,19.73
2023-01-26T13:25:32.570Z,19.65
2023-01-26T13:28:01.711Z,19.05
2023-01-26T13:30:32.314Z,19.98
2023-01-26T13:33:08.930Z,19.90
2023-01-26T13:35:36.397Z,19.05
2023-01-26T13:38:39.319Z,19.10
2023-01-26T13:41:17.701Z,16.85
2023-01-26T13:43:50.489Z,18.67
2023-01-26T13:46:36.873Z,20.40
2023-01-26T13:49:03.970Z,17.88
2023-01-26T13:51:33.988Z,22.17
2023-01-26T13:54:06.393Z,23.80
2023-01-26T13:56:58.936Z,22.33
2023-01-26T13:59:25.983Z,29.00
2023-01-26T14:01:55.277Z,21.63
2023-01-26T14:04:26.876Z,18.20
2023-01-26T14:07:05.788Z,21.27
2023-01-26T14:09:40.592Z,21.92
2023-01-26T14:12:08.468Z,23.70
2023-01-26T14:14:37.899Z,18.95
2023-01-26T14:17:23.425Z,20.55
2023-01-26T14:19:50.447Z,21.55
2023-01-26T14:22:18.679Z,21.20
2023-01-26T14:24:51.456Z,19.17
2023-01-26T14:27:32.690Z,20.27
2023-01-26T14:30:00.024Z,19.98
2023-01-26T14:32:29.789Z,20.27
2023-01-26T14:34:59.744Z,19.98
2023-01-26T14:37:28.287Z,23.70
2023-01-26T14:40:20.423Z,21.98
2023-01-26T14:42:53.148Z,19.88
2023-01-26T14:45:48.347Z,23.38
2023-01-26T14:48:19.459Z,21.77
2023-01-26T14:50:47.981Z,19.00
2023-01-26T14:53:32.874Z,18.55
2023-01-26T14:55:59.916Z,20.42
2023-01-26T14:58:32.320Z,22.88
2023-01-26T15:01:01.241Z,22.55
2023-01-26T15:03:33.592Z,19.38
2023-01-26T15:06:09.343Z,21.52
2023-01-26T15:11:22.575Z,20.45
2023-01-26T15:13:55.166Z,23.00
2023-01-26T15:16:26.255Z,20.25
2023-01-26T15:19:01.624Z,21.00
2023-01-26T15:21:40.078Z,20.63
2023-01-26T15:24:13.936Z,22.50
2023-01-26T15:26:41.500Z,25.77
2023-01-26T15:29:22.207Z,22.10
2023-01-26T15:31:53.901Z,21.33
2023-01-26T15:34:29.365Z,24.40
2023-01-26T15:36:58.620Z,19.92
2023-01-26T15:39:25.820Z,22.10
2023-01-26T15:42:07.805Z,20.15
2023-01-26T15:44:34.783Z,22.05
2023-01-26T15:47:01.783Z,23.02
2023-01-26T15:49:28.866Z,21.88
2023-01-26T15:51:55.833Z,20.98
2023-01-26T15:54:22.845Z,25.60
2023-01-26T15:56:49.775Z,24.45
2023-01-26T15:59:16.667Z,22.77
2023-01-26T16:01:43.789Z,28.75
2023-01-26T16:04:14.010Z,22.45
2023-01-26T16:06:41.166Z,22.42
2023-01-26T16:09:08.215Z,22.13
2023-01-26T16:11:39.494Z,20.63
2023-01-26T16:14:07.968Z,25.88
2023-01-26T16:16:35.123Z,28.05
2023-01-26T16:19:02.171Z,22.73
2023-01-26T16:21:33.813Z,21.77
2023-01-26T16:24:02.460Z,20.95
2023-01-26T16:26:30.138Z,21.67
2023-01-26T16:28:57.718Z,24.55
2023-01-26T16:31:29.018Z,22.58
2023-01-26T16:33:56.260Z,24.58
2023-01-26T16:36:23.460Z,22.98
2023-01-26T16:38:50.420Z,19.80
2023-01-26T16:41:29.471Z,22.10
2023-01-26T16:43:59.545Z,23.05
2023-01-26T16:46:28.143Z,21.30
2023-01-26T16:48:55.617Z,23.90
2023-01-26T16:51:27.510Z,23.52
2023-01-26T16:53:55.529Z,24.00
2023-01-26T16:56:24.698Z,22.15
2023-01-26T16:58:52.342Z,22.50
2023-01-26T17:01:20.880Z,22.45
2023-01-26T17:03:48.851Z,20.38
2023-01-26T17:06:17.164Z,27.48
2023-01-26T17:08:44.772Z,24.17
2023-01-26T17:11:23.320Z,32.97
2023-01-26T17:13:51.113Z,24.25
2023-01-26T17:16:25.389Z,26.73
2023-01-26T17:18:52.833Z,27.13
2023-01-26T17:21:21.221Z,24.48
2023-01-26T17:23:52.764Z,25.63
2023-01-26T17:26:21.365Z,21.83
2023-01-26T17:28:50.664Z,27.15
2023-01-26T17:31:20.298Z,24.23
2023-01-26T17:33:48.706Z,26.95
2023-01-26T17:36:16.510Z,27.10
2023-01-26T17:38:43.631Z,25.58
2023-01-26T17:41:10.919Z,26.08
2023-01-26T17:43:37.928Z,27.08
2023-01-26T17:46:13.542Z,25.33
2023-01-26T17:48:42.635Z,24.45
2023-01-26T17:51:14.007Z,26.83
2023-01-26T17:53:42.509Z,25.13
2023-01-26T17:56:12.573Z,24.63
2023-01-26T17:58:39.924Z,25.80
2023-01-26T18:01:08.802Z,27.88
2023-01-26T18:03:39.619Z,28.00
2023-01-26T18:06:06.706Z,30.35
2023-01-26T18:08:33.688Z,32.63
2023-01-26T18:11:02.485Z,29.08
2023-01-26T18:13:30.585Z,24.67
2023-01-26T18:15:58.026Z,27.55
2023-01-26T18:18:26.386Z,23.50
2023-01-26T18:20:54.243Z,26.92
2023-01-26T18:23:22.499Z,26.58
2023-01-26T18:25:49.951Z,23.33
2023-01-26T18:28:17.049Z,25.98
2023-01-26T18:30:44.043Z,23.38
2023-01-26T18:33:11.172Z,27.83
2023-01-26T18:35:38.183Z,25.88
2023-01-26T18:38:05.144Z,26.85
2023-01-26T18:40:32.169Z,27.63
2023-01-26T18:42:59.254Z,26.23
2023-01-26T18:45:26.270Z,26.95
2023-01-26T18:47:53.165Z,25.10
2023-01-26T18:50:20.137Z,26.42
2023-01-26T18:52:47.086Z,27.98
2023-01-26T18:55:14.456Z,23.92
2023-01-26T18:57:41.611Z,32.67
2023-01-26T19:00:09.347Z,26.77
2023-01-26T19:02:38.932Z,27.60
2023-01-26T19:05:09.472Z,27.00
2023-01-26T19:07:36.493Z,26.27
2023-01-26T19:10:04.997Z,28.25
2023-01-26T19:12:32.165Z,25.02
2023-01-26T19:14:59.161Z,27.75
2023-01-26T19:17:26.302Z,29.67
2023-01-26T19:19:53.292Z,25.60
2023-01-26T19:22:20.496Z,24.55
2023-01-26T19:24:47.462Z,25.05
2023-01-26T19:27:14.488Z,26.02
2023-01-26T19:29:41.518Z,28.70
2023-01-26T19:32:08.477Z,28.13
2023-01-26T19:34:35.572Z,27.40
2023-01-26T19:37:02.974Z,28.48
2023-01-26T19:39:31.086Z,27.55
2023-01-26T19:41:58.107Z,25.65
2023-01-26T19:44:25.127Z,26.75
2023-01-26T19:46:52.975Z,29.45
2023-01-26T19:49:21.401Z,24.80
2023-01-26T19:51:48.953Z,29.13
2023-01-26T19:54:16.066Z,25.55
2023-01-26T19:56:43.141Z,30.85
2023-01-26T19:59:11.638Z,24.92
2023-01-26T20:01:39.114Z,26.30
2023-01-26T20:04:09.367Z,23.45
2023-01-26T20:06:37.542Z,28.25
2023-01-26T20:09:06.434Z,25.95
2023-01-26T20:11:34.182Z,26.40
2023-01-26T20:14:04.376Z,26.52
2023-01-26T20:16:32.088Z,23.30
2023-01-26T20:18:59.653Z,25.33
2023-01-26T20:21:28.258Z,28.65
2023-01-26T20:23:56.199Z,24.42
2023-01-26T20:26:25.935Z,24.98
2023-01-26T20:28:53.729Z,25.65
2023-01-26T20:31:23.775Z,26.70
2023-01-26T20:33:53.290Z,22.63
2023-01-26T20:36:23.849Z,28.75
2023-01-26T20:38:51.928Z,30.08
2023-01-26T20:41:21.926Z,26.67
2023-01-26T20:43:59.213Z,26.85
2023-01-26T20:46:29.554Z,27.75
2023-01-26T20:48:56.815Z,26.40
2023-01-26T20:51:28.685Z,29.23
2023-01-26T20:53:57.576Z,27.25
2023-01-26T20:56:24.817Z,24.70
2023-01-26T20:58:53.740Z,23.90
2023-01-26T21:01:22.525Z,26.23
2023-01-26T21:03:49.952Z,25.38
2023-01-26T21:06:19.140Z,24.70
2023-01-26T21:08:47.840Z,29.55
2023-01-26T21:11:16.874Z,27.67
2023-01-26T21:13:45.277Z,30.17
2023-01-26T21:16:17.211Z,25.42
2023-01-26T21:18:45.458Z,26.80
2023-01-26T21:21:14.825Z,27.05
2023-01-26T21:23:41.925Z,22.85
2023-01-26T21:26:14.667Z,28.60
2023-01-26T21:28:41.800Z,29.23
2023-01-26T21:31:11.335Z,26.98
2023-01-26T21:33:40.726Z,26.20
2023-01-26T21:36:09.601Z,28.52
2023-01-26T21:38:38.917Z,27.67
2023-01-26T21:41:30.145Z,25.38
2023-01-26T21:43:59.049Z,28.35
2023-01-26T21:46:28.913Z,29.55
2023-01-26T21:48:56.099Z,25.27
2023-01-26T21:51:42.087Z,26.30
2023-01-26T21:54:09.226Z,26.98
2023-01-26T21:56:36.405Z,28.30
2023-01-26T21:59:07.648Z,25.83
2023-01-26T22:01:39.979Z,27.20
2023-01-26T22:04:10.060Z,30.45
2023-01-26T22:06:37.452Z,24.15
2023-01-26T22:09:05.467Z,26.80
2023-01-26T22:11:32.937Z,29.10
2023-01-26T22:14:00.300Z,27.73
2023-01-26T22:16:28.208Z,27.63
2023-01-26T22:18:55.334Z,24.30
2023-01-26T22:21:22.580Z,28.27
2023-01-26T22:23:50.485Z,29.60
2023-01-26T22:26:19.948Z,29.23
2023-01-26T22:28:55.194Z,29.38
2023-01-26T22:31:26.177Z,25.08
2023-01-26T22:33:54.567Z,27.58
2023-01-26T22:36:22.280Z,26.00
2023-01-26T22:38:49.928Z,25.77
2023-01-26T22:41:20.279Z,29.08
2023-01-26T22:43:48.451Z,33.53
2023-01-26T22:46:17.540Z,29.70
2023-01-26T22:48:45.038Z,27.88
2023-01-26T22:51:21.761Z,28.85
2023-01-26T22:53:51.571Z,28.15
2023-01-26T22:56:19.041Z,28.13
2023-01-26T22:58:59.453Z,29.70
2023-01-26T23:01:28.915Z,28.98
2023-01-26T23:03:56.739Z,30.17
2023-01-26T23:06:24.288Z,28.38
2023-01-26T23:08:52.301Z,30.73
2023-01-26T23:11:24.864Z,28.33
2023-01-26T23:13:53.646Z,27.70
2023-01-26T23:16:23.424Z,27.00
2023-01-26T23:18:52.127Z,27.45
2023-01-26T23:21:19.200Z,26.58
2023-01-26T23:23:46.247Z,30.67
2023-01-26T23:26:13.256Z,28.98
2023-01-26T23:28:42.405Z,30.20
2023-01-26T23:31:10.795Z,29.70
2023-01-26T23:33:38.622Z,27.98
2023-01-26T23:36:07.350Z,27.38
2023-01-26T23:38:34.403Z,27.88
2023-01-26T23:41:01.688Z,27.75
2023-01-26T23:43:28.949Z,32.13
2023-01-26T23:45:56.890Z,28.88
2023-01-26T23:48:25.026Z,29.40
2023-01-26T23:50:58.655Z,31.85
2023-01-26T23:53:25.993Z,30.02
2023-01-26T23:55:53.043Z,27.08
2023-01-26T23:58:20.513Z,27.55
